Broadwell, Illinois
Current Conditions -  °F | °C
As of 5:52 PM on Tuesday 25 Nov 2014 (Local Time) from KSPI Reporting Station
Clear Clear  
Wind Chill: 23°   Ceiling: Unl
Heat Index: 28°   Visibility: 10mi
Dew Point: 23°   Wind: 5mph
Humidity: 81%   Direction: 120°ESE
Pressure: 30.17"   Gusts: NA
Location:  39.9935°N, 89.4758°W
Report Text: KSPI 252352Z 12004KT 10SM CLR M02/M05 A3017 RMK AO2 SLP223 T10221050 10022 21022 53008
Loading
Personal Weather Stations






























Interactive Weather Map New forecast layout! Learn more

10-Day Weather Forecast

Advertisements
Track Severe Weather on mobile